createdAt,value
2024-05-09T00:00:47.921Z,100.00
2024-05-09T00:03:15.003Z,100.00
2024-05-09T00:05:43.675Z,100.00
2024-05-09T00:08:12.104Z,100.00
2024-05-09T00:10:46.121Z,100.00
2024-05-09T00:13:13.194Z,100.00
2024-05-09T00:15:43.273Z,100.00
2024-05-09T00:18:13.548Z,100.00
2024-05-09T00:20:53.774Z,100.00
2024-05-09T00:23:20.859Z,100.00
2024-05-09T00:25:47.818Z,100.00
2024-05-09T00:28:15.774Z,100.00
2024-05-09T00:30:43.009Z,100.00
2024-05-09T00:33:12.796Z,100.00
2024-05-09T00:35:42.535Z,100.00
2024-05-09T00:38:11.638Z,100.00
2024-05-09T00:40:42.839Z,100.00
2024-05-09T00:43:12.294Z,100.00
2024-05-09T00:45:40.706Z,100.00
2024-05-09T00:48:16.223Z,100.00
2024-05-09T00:51:08.329Z,100.00
2024-05-09T00:53:35.719Z,100.00
2024-05-09T00:56:12.290Z,100.00
2024-05-09T00:58:45.573Z,100.00
2024-05-09T01:01:12.639Z,100.00
2024-05-09T01:03:41.946Z,100.00
2024-05-09T01:06:10.131Z,100.00
2024-05-09T01:08:42.699Z,100.00
2024-05-09T01:11:13.101Z,100.00
2024-05-09T01:13:45.025Z,100.00
2024-05-09T01:16:14.491Z,100.00
2024-05-09T01:18:41.809Z,100.00
2024-05-09T01:21:16.052Z,100.00
2024-05-09T01:23:43.064Z,100.00
2024-05-09T01:26:12.993Z,100.00
2024-05-09T01:28:45.572Z,100.00
2024-05-09T01:31:23.503Z,100.00
2024-05-09T01:33:52.090Z,100.00
2024-05-09T01:36:25.182Z,100.00
2024-05-09T01:39:04.866Z,100.00
2024-05-09T01:41:33.503Z,100.00
2024-05-09T01:44:03.875Z,100.00
2024-05-09T01:46:31.148Z,100.00
2024-05-09T01:49:04.261Z,100.00
2024-05-09T01:51:34.179Z,100.00
2024-05-09T01:54:04.468Z,100.00
2024-05-09T01:56:36.837Z,100.00
2024-05-09T01:59:11.592Z,100.00
2024-05-09T02:01:56.263Z,100.00
2024-05-09T02:04:24.965Z,100.00
2024-05-09T02:06:53.505Z,100.00
2024-05-09T02:09:28.835Z,100.00
2024-05-09T02:11:59.723Z,100.00
2024-05-09T02:14:27.070Z,100.00
2024-05-09T02:16:54.441Z,100.00
2024-05-09T02:19:24.713Z,100.00
2024-05-09T02:21:51.754Z,100.00
2024-05-09T02:24:21.943Z,100.00
2024-05-09T02:26:49.267Z,100.00
2024-05-09T02:29:16.264Z,100.00
2024-05-09T02:31:45.486Z,100.00
2024-05-09T02:34:16.348Z,100.00
2024-05-09T02:36:43.298Z,100.00
2024-05-09T02:39:10.241Z,100.00
2024-05-09T02:41:37.364Z,100.00
2024-05-09T02:44:07.120Z,100.00
2024-05-09T02:46:35.534Z,100.00
2024-05-09T02:49:14.893Z,100.00
2024-05-09T02:51:45.014Z,100.00
2024-05-09T02:54:22.133Z,100.00
2024-05-09T02:56:49.078Z,100.00
2024-05-09T02:59:19.313Z,100.00
2024-05-09T03:01:46.406Z,100.00
2024-05-09T03:04:16.388Z,100.00
2024-05-09T03:06:43.650Z,100.00
2024-05-09T03:09:18.039Z,100.00
2024-05-09T03:11:46.364Z,100.00
2024-05-09T03:14:20.143Z,100.00
2024-05-09T03:16:46.981Z,100.00
2024-05-09T03:19:14.144Z,100.00
2024-05-09T03:21:44.218Z,100.00
2024-05-09T03:24:11.652Z,100.00
2024-05-09T03:26:38.790Z,100.00
2024-05-09T03:29:11.186Z,100.00
2024-05-09T03:31:39.488Z,100.00
2024-05-09T03:34:11.887Z,100.00
2024-05-09T03:36:45.691Z,100.00
2024-05-09T03:39:12.912Z,100.00
2024-05-09T03:41:43.325Z,100.00
2024-05-09T03:44:10.475Z,100.00
2024-05-09T03:46:42.532Z,100.00
2024-05-09T03:49:11.801Z,100.00
2024-05-09T03:51:38.943Z,100.00
2024-05-09T03:54:10.357Z,100.00
2024-05-09T03:56:40.552Z,100.00
2024-05-09T03:59:10.782Z,100.00
2024-05-09T04:01:39.235Z,100.00
2024-05-09T04:04:09.650Z,100.00
2024-05-09T04:06:36.792Z,100.00
2024-05-09T04:09:10.800Z,100.00
2024-05-09T04:11:42.523Z,100.00
2024-05-09T04:14:12.793Z,100.00
2024-05-09T04:16:45.368Z,100.00
2024-05-09T04:19:12.429Z,100.00
2024-05-09T04:21:39.561Z,100.00
2024-05-09T04:24:10.141Z,100.00
2024-05-09T04:26:37.010Z,100.00
2024-05-09T04:29:04.369Z,100.00
2024-05-09T04:31:36.578Z,100.00
2024-05-09T04:34:04.485Z,100.00
2024-05-09T04:36:34.602Z,100.00
2024-05-09T04:39:01.552Z,100.00
2024-05-09T04:41:31.568Z,100.00
2024-05-09T04:44:01.505Z,100.00
2024-05-09T04:46:31.476Z,100.00
2024-05-09T04:48:58.755Z,100.00
2024-05-09T04:51:25.797Z,100.00
2024-05-09T04:53:54.463Z,100.00
2024-05-09T04:56:24.599Z,100.00
2024-05-09T04:58:51.727Z,100.00
2024-05-09T05:01:20.374Z,100.00
2024-05-09T05:03:56.227Z,100.00
2024-05-09T05:06:29.702Z,100.00
2024-05-09T05:08:58.984Z,100.00
2024-05-09T05:11:29.866Z,100.00
2024-05-09T05:14:04.157Z,100.00
2024-05-09T05:16:37.122Z,100.00
2024-05-09T05:19:15.102Z,100.00
2024-05-09T06:03:45.756Z,100.00
2024-05-09T06:06:26.451Z,100.00
2024-05-09T06:08:55.066Z,100.00
2024-05-09T06:11:29.947Z,100.00
2024-05-09T06:14:04.439Z,100.00
2024-05-09T06:16:37.359Z,100.00
2024-05-09T06:19:04.767Z,100.00
2024-05-09T06:21:31.769Z,100.00
2024-05-09T06:23:58.792Z,100.00
2024-05-09T06:26:31.900Z,100.00
2024-05-09T06:29:17.808Z,95.45
2024-05-09T06:31:46.511Z,91.99
2024-05-09T06:34:20.622Z,91.78
2024-05-09T06:36:50.137Z,81.75
2024-05-09T06:39:17.109Z,80.53
2024-05-09T06:41:45.004Z,83.66
2024-05-09T06:44:13.870Z,83.65
2024-05-09T06:46:42.340Z,79.99
2024-05-09T06:49:14.894Z,75.65
2024-05-09T06:51:44.124Z,72.01
2024-05-09T06:54:14.520Z,64.08
2024-05-09T06:56:41.580Z,62.79
2024-05-09T06:59:08.920Z,60.24
2024-05-09T07:01:35.925Z,56.67
2024-05-09T07:04:02.957Z,55.69
2024-05-09T07:06:31.185Z,55.29
2024-05-09T07:09:00.748Z,54.09
2024-05-09T07:11:31.807Z,52.76
2024-05-09T07:13:58.872Z,52.88
2024-05-09T07:16:31.631Z,52.67
2024-05-09T07:19:01.767Z,53.18
2024-05-09T07:21:32.581Z,50.06
2024-05-09T07:24:02.265Z,48.49
2024-05-09T07:26:32.333Z,46.81
2024-05-09T07:29:02.217Z,46.47
2024-05-09T07:31:32.221Z,46.43
2024-05-09T07:34:00.691Z,47.56
2024-05-09T07:36:33.721Z,49.07
2024-05-09T07:39:01.265Z,47.43
2024-05-09T07:41:30.490Z,48.41
2024-05-09T07:44:08.052Z,50.49
2024-05-09T07:50:53.390Z,49.61
2024-05-09T07:53:20.974Z,49.85
2024-05-09T07:54:42.127Z,49.50
2024-05-09T07:57:09.216Z,49.36
2024-05-09T07:59:39.867Z,48.29
2024-05-09T08:02:10.513Z,48.83
2024-05-09T08:04:37.701Z,49.66
2024-05-09T08:07:05.047Z,51.34
2024-05-09T08:09:42.760Z,52.41
2024-05-09T08:12:12.979Z,52.74
2024-05-09T08:14:41.009Z,53.47
2024-05-09T08:17:07.944Z,56.40
2024-05-09T08:19:37.863Z,56.34
2024-05-09T08:22:09.452Z,59.21
2024-05-09T08:24:37.036Z,60.11
2024-05-09T08:27:04.347Z,57.33
2024-05-09T08:29:34.564Z,56.97
2024-05-09T08:32:01.581Z,58.96
2024-05-09T08:34:35.086Z,61.45
2024-05-09T08:37:10.062Z,64.17
2024-05-09T08:39:42.791Z,61.67
2024-05-09T08:42:19.383Z,61.32
2024-05-09T08:50:57.820Z,58.52
2024-05-09T09:19:23.565Z,62.61
2024-05-09T09:31:06.126Z,73.72
2024-05-09T09:41:49.025Z,73.16
2024-05-09T09:44:19.693Z,71.28
2024-05-09T09:49:44.421Z,71.61
2024-05-09T10:05:53.780Z,62.71
2024-05-09T10:11:08.371Z,64.59
2024-05-09T10:13:42.062Z,67.60
2024-05-09T10:16:12.480Z,64.28
2024-05-09T10:18:40.722Z,65.34
2024-05-09T10:21:19.759Z,64.33
2024-05-09T10:26:55.223Z,54.07
2024-05-09T10:29:30.864Z,52.40
2024-05-09T10:31:59.954Z,57.32
2024-05-09T10:34:34.838Z,55.34
2024-05-09T10:37:04.696Z,54.20
2024-05-09T10:39:42.795Z,54.69
2024-05-09T10:42:10.472Z,52.46
2024-05-09T10:44:40.712Z,50.86
2024-05-09T10:47:10.967Z,50.73
2024-05-09T10:49:43.726Z,52.35
2024-05-09T10:52:10.718Z,49.08
2024-05-09T10:54:42.336Z,50.74
2024-05-09T10:57:16.637Z,46.91
2024-05-09T10:59:43.836Z,48.72
2024-05-09T11:02:12.337Z,49.43
2024-05-09T11:04:45.350Z,49.78
2024-05-09T11:07:16.847Z,49.67
2024-05-09T11:09:46.955Z,50.71
2024-05-09T11:12:14.228Z,50.91
2024-05-09T11:15:01.462Z,46.03
2024-05-09T11:17:28.664Z,48.12
2024-05-09T11:19:55.704Z,46.29
2024-05-09T11:22:25.426Z,48.39
2024-05-09T11:24:52.724Z,47.85
2024-05-09T11:27:21.637Z,49.49
2024-05-09T11:29:48.401Z,48.48
2024-05-09T11:32:16.582Z,44.47
2024-05-09T11:34:46.299Z,45.60
2024-05-09T11:37:13.899Z,47.80
2024-05-09T11:39:41.080Z,48.70
2024-05-09T11:42:10.455Z,47.74
2024-05-09T11:44:37.575Z,48.31
2024-05-09T11:47:04.977Z,49.00
2024-05-09T11:49:33.029Z,49.89
2024-05-09T11:52:00.155Z,49.24
2024-05-09T11:54:29.821Z,51.86
2024-05-09T11:56:56.698Z,52.93
2024-05-09T11:59:23.797Z,54.74
2024-05-09T12:01:50.766Z,54.45
2024-05-09T12:04:18.128Z,52.88
2024-05-09T12:06:54.010Z,50.85
2024-05-09T12:09:20.887Z,51.05
2024-05-09T12:11:50.991Z,50.25
2024-05-09T12:14:17.946Z,49.63
2024-05-09T12:16:47.680Z,49.86
2024-05-09T12:19:14.581Z,50.19
2024-05-09T12:21:41.460Z,48.82
2024-05-09T12:24:08.288Z,49.16
2024-05-09T12:26:35.640Z,49.06
2024-05-09T12:29:02.461Z,48.46
2024-05-09T12:31:32.068Z,50.70
2024-05-09T12:34:02.309Z,51.68
2024-05-09T12:36:31.900Z,50.10
2024-05-09T12:39:08.744Z,50.43
2024-05-09T12:41:36.093Z,49.96
2024-05-09T12:44:05.568Z,50.43
2024-05-09T12:46:35.154Z,51.29
2024-05-09T12:49:02.232Z,52.05
2024-05-09T12:51:32.452Z,50.34
2024-05-09T12:54:01.756Z,53.62
2024-05-09T12:56:34.417Z,51.33
2024-05-09T12:59:01.136Z,51.75
2024-05-09T13:01:30.741Z,52.90
2024-05-09T13:03:57.810Z,53.88
2024-05-09T13:06:24.796Z,56.10
2024-05-09T13:08:54.705Z,58.93
2024-05-09T13:11:24.126Z,56.58
2024-05-09T13:13:54.247Z,57.30
2024-05-09T13:16:21.091Z,56.15
2024-05-09T13:18:53.461Z,56.10
2024-05-09T13:21:20.334Z,59.36
2024-05-09T13:23:48.463Z,57.64
2024-05-09T13:26:20.657Z,60.27
2024-05-09T13:28:50.027Z,64.79
2024-05-09T13:31:20.351Z,64.68
2024-05-09T13:33:47.466Z,60.69
2024-05-09T13:36:23.228Z,59.32
2024-05-09T13:38:57.625Z,58.35
2024-05-09T13:41:24.575Z,59.07
2024-05-09T13:43:51.397Z,58.59
2024-05-09T13:46:21.467Z,62.15
2024-05-09T13:48:51.410Z,58.01
2024-05-09T13:51:36.270Z,59.11
2024-05-09T13:54:03.174Z,58.17
2024-05-09T13:56:39.252Z,58.58
2024-05-09T13:59:06.596Z,58.99
2024-05-09T14:01:33.832Z,59.26
2024-05-09T14:04:04.096Z,58.68
2024-05-09T14:06:34.147Z,58.08
2024-05-09T14:09:01.425Z,60.39
2024-05-09T14:11:34.464Z,56.44
2024-05-09T14:14:04.111Z,58.90
2024-05-09T14:16:34.885Z,62.29
2024-05-09T14:19:02.323Z,62.38
2024-05-09T14:21:35.321Z,61.13
2024-05-09T14:24:02.082Z,59.32
2024-05-09T14:26:37.778Z,61.56
2024-05-09T14:29:04.869Z,63.66
2024-05-09T14:31:38.745Z,60.76
2024-05-09T14:34:06.386Z,60.19
2024-05-09T14:36:33.937Z,57.31
2024-05-09T14:39:03.920Z,58.64
2024-05-09T14:41:30.686Z,56.57
2024-05-09T14:43:58.449Z,54.95
2024-05-09T14:46:26.859Z,54.45
2024-05-09T14:48:53.964Z,54.05
2024-05-09T14:51:25.531Z,54.71
2024-05-09T14:53:52.382Z,55.81
2024-05-09T14:56:19.425Z,53.47
2024-05-09T14:58:46.517Z,54.30
2024-05-09T15:01:13.481Z,53.39
2024-05-09T15:03:40.906Z,54.53
2024-05-09T15:06:07.998Z,56.64
2024-05-09T15:08:35.162Z,56.64
2024-05-09T15:11:05.150Z,56.68
2024-05-09T15:13:32.477Z,55.47
2024-05-09T15:16:08.083Z,55.35
2024-05-09T15:18:42.218Z,54.28
2024-05-09T15:21:10.649Z,58.71
2024-05-09T15:23:40.796Z,57.89
2024-05-09T15:26:07.807Z,59.67
2024-05-09T15:28:37.654Z,60.61
2024-05-09T15:31:07.489Z,61.91
2024-05-09T15:33:37.549Z,61.02
2024-05-09T15:36:06.368Z,61.93
2024-05-09T15:38:35.568Z,60.93
2024-05-09T15:41:05.766Z,65.41
2024-05-09T15:43:32.809Z,64.21
2024-05-09T15:46:03.253Z,63.82
2024-05-09T15:48:30.371Z,64.03
2024-05-09T15:51:02.003Z,63.23
2024-05-09T15:53:29.340Z,62.91
2024-05-09T15:55:56.772Z,65.04
2024-05-09T15:58:26.278Z,64.17
2024-05-09T16:00:53.372Z,64.98
2024-05-09T16:03:21.402Z,63.23
2024-05-09T16:05:51.613Z,62.99
2024-05-09T16:08:18.564Z,64.56
2024-05-09T16:19:00.725Z,71.19
2024-05-09T16:24:14.871Z,71.01
2024-05-09T18:50:35.854Z,100.00
2024-05-09T19:31:09.549Z,100.00
2024-05-09T19:44:28.827Z,100.00
2024-05-09T19:49:52.255Z,100.00
2024-05-09T20:24:57.088Z,100.00
2024-05-09T20:46:18.452Z,100.00
2024-05-09T20:48:49.065Z,100.00
2024-05-09T20:51:21.888Z,100.00
2024-05-09T20:53:51.351Z,100.00
2024-05-09T20:56:22.510Z,100.00
2024-05-09T20:58:51.859Z,100.00
2024-05-09T21:01:27.859Z,100.00
2024-05-09T21:03:54.906Z,100.00
2024-05-09T21:06:21.869Z,100.00
2024-05-09T21:08:58.813Z,100.00
2024-05-09T21:11:28.254Z,100.00
2024-05-09T21:13:55.088Z,100.00
2024-05-09T21:16:24.446Z,100.00
2024-05-09T21:18:51.280Z,100.00
2024-05-09T21:21:21.243Z,100.00
2024-05-09T21:23:56.665Z,100.00
2024-05-09T21:26:25.447Z,100.00
2024-05-09T21:28:52.182Z,100.00
2024-05-09T21:31:19.039Z,100.00
2024-05-09T21:33:57.565Z,100.00
2024-05-09T21:36:24.395Z,100.00
2024-05-09T21:38:51.156Z,100.00
2024-05-09T21:41:19.846Z,100.00
2024-05-09T21:43:46.907Z,100.00
2024-05-09T21:46:13.935Z,100.00
2024-05-09T21:48:40.968Z,100.00
2024-05-09T21:51:16.074Z,100.00
2024-05-09T21:53:42.833Z,100.00
2024-05-09T21:56:09.633Z,100.00
2024-05-09T21:58:37.440Z,100.00
2024-05-09T22:01:06.008Z,100.00
2024-05-09T22:03:33.202Z,100.00
2024-05-09T22:06:00.609Z,100.00
2024-05-09T22:08:27.446Z,100.00
2024-05-09T22:10:54.396Z,100.00
2024-05-09T22:13:21.477Z,100.00
2024-05-09T22:15:53.798Z,100.00
2024-05-09T22:18:20.758Z,100.00
2024-05-09T22:21:14.594Z,100.00
2024-05-09T22:23:41.386Z,100.00
2024-05-09T22:26:10.994Z,100.00
2024-05-09T22:28:38.277Z,100.00
2024-05-09T22:31:14.199Z,100.00
2024-05-09T22:33:42.740Z,100.00
2024-05-09T22:36:11.744Z,100.00
2024-05-09T22:38:38.528Z,100.00
2024-05-09T22:41:09.358Z,100.00
2024-05-09T22:43:36.182Z,100.00
2024-05-09T22:46:03.711Z,100.00
2024-05-09T22:48:30.623Z,100.00
2024-05-09T22:51:03.950Z,100.00
2024-05-09T22:53:30.840Z,100.00
2024-05-09T22:56:03.703Z,100.00
2024-05-09T22:58:33.148Z,100.00
2024-05-09T23:01:03.320Z,100.00
2024-05-09T23:03:30.374Z,100.00
2024-05-09T23:06:00.415Z,100.00
2024-05-09T23:08:30.316Z,100.00
2024-05-09T23:11:09.261Z,100.00
2024-05-09T23:13:36.572Z,100.00
2024-05-09T23:16:03.834Z,100.00
2024-05-09T23:18:30.766Z,100.00
2024-05-09T23:21:04.011Z,100.00
2024-05-09T23:23:33.105Z,100.00
2024-05-09T23:26:02.304Z,100.00
2024-05-09T23:28:29.393Z,100.00
2024-05-09T23:30:56.350Z,100.00
2024-05-09T23:33:24.638Z,100.00
2024-05-09T23:35:54.974Z,100.00
2024-05-09T23:38:23.750Z,100.00
2024-05-09T23:41:00.195Z,100.00
2024-05-09T23:43:31.721Z,100.00
2024-05-09T23:46:10.371Z,100.00
2024-05-09T23:48:37.289Z,100.00
2024-05-09T23:53:47.754Z,100.00
2024-05-09T23:56:18.823Z,100.00
2024-05-09T23:58:54.468Z,100.00
